METAR Data
IDs: Format: Raw Decoded Include TAF

Data at: 1404 UTC 10 Aug 2022

KHMN 101258Z AUTO 00000KT 10SM CLR 21/13 A3024 RMK AO2 SLP171 T02060128 $